In Rescue
 
Open Full Screen Window  High Contrast Mode
Wind Gusting 00 knots
05
January 20, 2021 6:35 PM EST
Weather Information
Wind Direction
  180 °
Wind Speed
  05 kt (6 mph)
Wind Gust
  00 kt (0 mph)
Altimeter
30.07 in
Visibility
10 SM
Temperature
-02° C
28° F
Dewpoint
-06° C
21° F
Humidity
74%
1hr Rain Fall
00.00 in.
24hr Rain Fall
00.00 in.
Sky Condition
Clear
VFR

METAR KDLZ 202335Z AUTO 18005KT 10SM CLR M02/M06 A3007 RMK AO2

FAA Disclaimer: The data displayed is for advisory purposes only and is not to be used for flight planning or operations.